Lida, Belarus
Current Conditions -  °F | °C
As of 3:50 PM on Thursday 23 Oct 2014 (Local Time) from EYVI Reporting Station
Clear Clear  
Wind Chill: 24°   Ceiling: Unl
Heat Index: 32°   Visibility: 6mi
Dew Point: 12°   Wind: 10mph
Humidity: 44%   Direction: 80°E
Pressure: 30.36"   Gusts: NA
Location:  53.89°N, 25.28°E
Report Text: EYVI 231350Z 08009KT 050V110 CAVOK M00/M11 Q1028 NOSIG
Loading
Personal Weather Stations






























Interactive Weather Map
Tropical Storm Tracking
New forecast layout! Learn more

10-Day Weather Forecast

Advertisements
Track Severe Weather on mobile